Terminal Aerodrome Forecast
Issued by NWS

Home | Current Version | Previous Version | Graphics & Text | Print | Product List | Glossary On
Versions: 1 2 3 4 5 6 7 8 9 10 11 12 13 14 15 16 17 18 19 20 21 22 23 24 25 26 27 28 29 30 31 32 33 34 35 36 37 38 39
000
FTUS43 KGRB 280500
TAFRHI
TAF
KRHI 280520Z 2806/2906 00000KT 6SM BR SCT007 OVC013
      TEMPO 2808/2812 4SM BR BKN007
     FM281200 19003KT 4SM BR BKN007 OVC012
     FM281600 17008KT 6SM BR SCT009 OVC016
     FM282000 17010KT P6SM BKN025 OVC050 WS015/19035KT
     FM290200 13005KT 4SM BR BKN012 OVC025 PROB30 2902/2906 2SM
      -FZRASNPL=

USA.gov is the U.S. government's official web portal to all federal, state and local government web resources and services.